X  Blizu METAR Podaci o vazduhoplovstvu     KMLB Melbourne International Airport
Temperatura
64°F Temperatura
57°F Tačka Rose
78% Vlaga



Vetar
6 MPH
10 KM/H
3 M/S
5 KTS



70°
ISI
Trenutna situacija

Vedro Vedro
Vazdušni pritisak 1015.62 (hPa) - 29.99 (inHg)
Vidljivost 9.9 (Milje) - 16 (km)
Aerodrom
Aerodromski kod. KMLB

Lokacija: Melbourne International Airport
Udaljenost: 4 (mi)

Metar:
KMLB 060353Z 07005KT 10SM CLR 18/14 A2999 RMK AO2 SLP153 T01780139

Vreme: 05-03-2021 10:53 pm EST